sensor_id;sensor_type;location;lat;lon;timestamp;temperature;humidity
18083;DHT22;9168;51.194;6.840;2024-03-29T00:01:49;9.50;99.90
18083;DHT22;9168;51.194;6.840;2024-03-29T00:04:15;9.50;99.90
18083;DHT22;9168;51.194;6.840;2024-03-29T00:06:40;9.60;99.90
18083;DHT22;9168;51.194;6.840;2024-03-29T00:09:06;9.50;99.90
18083;DHT22;9168;51.194;6.840;2024-03-29T00:11:32;9.60;99.90
18083;DHT22;9168;51.194;6.840;2024-03-29T00:13:58;9.60;99.90
18083;DHT22;9168;51.194;6.840;2024-03-29T00:16:24;9.70;99.90
18083;DHT22;9168;51.194;6.840;2024-03-29T00:18:50;9.70;99.90
18083;DHT22;9168;51.194;6.840;2024-03-29T00:21:16;9.60;99.90
18083;DHT22;9168;51.194;6.840;2024-03-29T00:23:41;9.60;99.90
18083;DHT22;9168;51.194;6.840;2024-03-29T00:26:07;9.60;99.90
18083;DHT22;9168;51.194;6.840;2024-03-29T00:28:33;9.60;99.90
18083;DHT22;9168;51.194;6.840;2024-03-29T00:30:59;9.60;99.90
18083;DHT22;9168;51.194;6.840;2024-03-29T00:33:24;9.60;99.90
18083;DHT22;9168;51.194;6.840;2024-03-29T00:35:50;9.50;99.90
18083;DHT22;9168;51.194;6.840;2024-03-29T00:38:16;9.50;99.90
18083;DHT22;9168;51.194;6.840;2024-03-29T00:40:42;9.50;99.90
18083;DHT22;9168;51.194;6.840;2024-03-29T00:43:07;9.50;99.90
18083;DHT22;9168;51.194;6.840;2024-03-29T00:45:33;9.50;99.90
18083;DHT22;9168;51.194;6.840;2024-03-29T00:47:59;9.50;99.90
18083;DHT22;9168;51.194;6.840;2024-03-29T00:50:25;9.50;99.90
18083;DHT22;9168;51.194;6.840;2024-03-29T00:52:50;9.50;99.90
18083;DHT22;9168;51.194;6.840;2024-03-29T00:55:17;9.50;99.90
18083;DHT22;9168;51.194;6.840;2024-03-29T00:57:42;9.60;99.90
18083;DHT22;9168;51.194;6.840;2024-03-29T01:00:09;9.60;99.90
18083;DHT22;9168;51.194;6.840;2024-03-29T01:02:34;9.50;99.90
18083;DHT22;9168;51.194;6.840;2024-03-29T01:05:00;9.50;99.90
18083;DHT22;9168;51.194;6.840;2024-03-29T01:07:26;9.60;99.90
18083;DHT22;9168;51.194;6.840;2024-03-29T01:09:52;9.60;99.90
18083;DHT22;9168;51.194;6.840;2024-03-29T01:12:18;9.50;99.90
18083;DHT22;9168;51.194;6.840;2024-03-29T01:14:44;9.50;99.90
18083;DHT22;9168;51.194;6.840;2024-03-29T01:17:10;9.60;99.90
18083;DHT22;9168;51.194;6.840;2024-03-29T01:19:35;9.50;99.90
18083;DHT22;9168;51.194;6.840;2024-03-29T01:22:01;9.50;99.90
18083;DHT22;9168;51.194;6.840;2024-03-29T01:24:27;9.40;99.90
18083;DHT22;9168;51.194;6.840;2024-03-29T01:26:53;9.40;99.90
18083;DHT22;9168;51.194;6.840;2024-03-29T01:29:19;9.40;99.90
18083;DHT22;9168;51.194;6.840;2024-03-29T01:31:45;9.40;99.90
18083;DHT22;9168;51.194;6.840;2024-03-29T01:34:10;9.40;99.90
18083;DHT22;9168;51.194;6.840;2024-03-29T01:36:36;9.50;99.90
18083;DHT22;9168;51.194;6.840;2024-03-29T01:39:02;9.50;99.90
18083;DHT22;9168;51.194;6.840;2024-03-29T01:41:28;9.50;99.90
18083;DHT22;9168;51.194;6.840;2024-03-29T01:43:54;9.50;99.90
18083;DHT22;9168;51.194;6.840;2024-03-29T01:46:23;9.50;99.90
18083;DHT22;9168;51.194;6.840;2024-03-29T01:48:53;9.60;99.90
18083;DHT22;9168;51.194;6.840;2024-03-29T01:51:21;9.60;99.90
18083;DHT22;9168;51.194;6.840;2024-03-29T01:53:51;9.60;99.90
18083;DHT22;9168;51.194;6.840;2024-03-29T01:56:21;9.60;99.90
18083;DHT22;9168;51.194;6.840;2024-03-29T01:58:50;9.60;99.90
18083;DHT22;9168;51.194;6.840;2024-03-29T02:01:19;9.70;99.90
18083;DHT22;9168;51.194;6.840;2024-03-29T02:03:47;9.60;99.90
18083;DHT22;9168;51.194;6.840;2024-03-29T02:06:14;9.70;99.90
18083;DHT22;9168;51.194;6.840;2024-03-29T02:08:41;9.70;99.90
18083;DHT22;9168;51.194;6.840;2024-03-29T02:11:08;9.70;99.90
18083;DHT22;9168;51.194;6.840;2024-03-29T02:13:34;9.70;99.90
18083;DHT22;9168;51.194;6.840;2024-03-29T02:16:02;9.70;99.90
18083;DHT22;9168;51.194;6.840;2024-03-29T02:18:29;9.70;99.90
18083;DHT22;9168;51.194;6.840;2024-03-29T02:20:56;9.70;99.90
18083;DHT22;9168;51.194;6.840;2024-03-29T02:23:30;9.70;99.90
18083;DHT22;9168;51.194;6.840;2024-03-29T02:25:58;9.80;99.90
18083;DHT22;9168;51.194;6.840;2024-03-29T02:28:25;9.80;99.90
18083;DHT22;9168;51.194;6.840;2024-03-29T02:30:52;9.80;99.90
18083;DHT22;9168;51.194;6.840;2024-03-29T02:33:21;9.90;99.90
18083;DHT22;9168;51.194;6.840;2024-03-29T02:35:47;9.90;99.90
18083;DHT22;9168;51.194;6.840;2024-03-29T02:38:14;9.90;99.90
18083;DHT22;9168;51.194;6.840;2024-03-29T02:40:40;9.90;99.90
18083;DHT22;9168;51.194;6.840;2024-03-29T02:43:07;9.80;99.90
18083;DHT22;9168;51.194;6.840;2024-03-29T02:45:34;9.80;99.90
18083;DHT22;9168;51.194;6.840;2024-03-29T02:48:01;9.80;99.90
18083;DHT22;9168;51.194;6.840;2024-03-29T02:50:27;9.80;99.90
18083;DHT22;9168;51.194;6.840;2024-03-29T02:52:53;9.80;99.90
18083;DHT22;9168;51.194;6.840;2024-03-29T02:55:20;9.80;99.90
18083;DHT22;9168;51.194;6.840;2024-03-29T02:57:46;9.90;99.90
18083;DHT22;9168;51.194;6.840;2024-03-29T03:00:13;9.90;99.90
18083;DHT22;9168;51.194;6.840;2024-03-29T03:02:39;9.80;99.90
18083;DHT22;9168;51.194;6.840;2024-03-29T03:05:07;9.80;99.90
18083;DHT22;9168;51.194;6.840;2024-03-29T03:07:33;9.90;99.90
18083;DHT22;9168;51.194;6.840;2024-03-29T03:10:18;9.80;99.90
18083;DHT22;9168;51.194;6.840;2024-03-29T03:13:02;9.80;99.90
18083;DHT22;9168;51.194;6.840;2024-03-29T03:15:29;9.80;99.90
18083;DHT22;9168;51.194;6.840;2024-03-29T03:17:55;9.80;99.90
18083;DHT22;9168;51.194;6.840;2024-03-29T03:20:21;9.70;99.90
18083;DHT22;9168;51.194;6.840;2024-03-29T03:22:50;9.80;99.90
18083;DHT22;9168;51.194;6.840;2024-03-29T03:25:16;9.80;99.90
18083;DHT22;9168;51.194;6.840;2024-03-29T03:27:43;9.80;99.90
18083;DHT22;9168;51.194;6.840;2024-03-29T03:30:09;9.70;99.90
18083;DHT22;9168;51.194;6.840;2024-03-29T03:32:36;9.70;99.90
18083;DHT22;9168;51.194;6.840;2024-03-29T03:35:01;9.70;99.90
18083;DHT22;9168;51.194;6.840;2024-03-29T03:37:28;9.70;99.90
18083;DHT22;9168;51.194;6.840;2024-03-29T03:39:54;9.70;99.90
18083;DHT22;9168;51.194;6.840;2024-03-29T03:42:20;9.70;99.90
18083;DHT22;9168;51.194;6.840;2024-03-29T03:44:46;9.70;99.90
18083;DHT22;9168;51.194;6.840;2024-03-29T03:47:13;9.70;99.90
18083;DHT22;9168;51.194;6.840;2024-03-29T03:49:38;9.70;99.90
18083;DHT22;9168;51.194;6.840;2024-03-29T03:52:05;9.70;99.90
18083;DHT22;9168;51.194;6.840;2024-03-29T03:54:31;9.70;99.90
18083;DHT22;9168;51.194;6.840;2024-03-29T03:56:57;9.80;99.90
18083;DHT22;9168;51.194;6.840;2024-03-29T03:59:23;9.80;99.90
18083;DHT22;9168;51.194;6.840;2024-03-29T04:01:50;9.80;99.90
18083;DHT22;9168;51.194;6.840;2024-03-29T04:04:18;9.80;99.90
18083;DHT22;9168;51.194;6.840;2024-03-29T04:06:44;9.80;99.90
18083;DHT22;9168;51.194;6.840;2024-03-29T04:09:10;9.70;99.90
18083;DHT22;9168;51.194;6.840;2024-03-29T04:11:37;9.70;99.90
18083;DHT22;9168;51.194;6.840;2024-03-29T04:14:02;9.70;99.90
18083;DHT22;9168;51.194;6.840;2024-03-29T04:16:29;9.70;99.90
18083;DHT22;9168;51.194;6.840;2024-03-29T04:18:55;9.80;99.90
18083;DHT22;9168;51.194;6.840;2024-03-29T04:21:21;9.80;99.90
18083;DHT22;9168;51.194;6.840;2024-03-29T04:23:47;9.80;99.90
18083;DHT22;9168;51.194;6.840;2024-03-29T04:26:13;9.70;99.90
18083;DHT22;9168;51.194;6.840;2024-03-29T04:28:39;9.80;99.90
18083;DHT22;9168;51.194;6.840;2024-03-29T04:31:06;9.80;99.90
18083;DHT22;9168;51.194;6.840;2024-03-29T04:33:31;9.80;99.90
18083;DHT22;9168;51.194;6.840;2024-03-29T04:36:00;9.80;99.90
18083;DHT22;9168;51.194;6.840;2024-03-29T04:38:26;9.90;99.90
18083;DHT22;9168;51.194;6.840;2024-03-29T04:40:55;9.90;99.90
18083;DHT22;9168;51.194;6.840;2024-03-29T04:43:23;9.80;99.90
18083;DHT22;9168;51.194;6.840;2024-03-29T04:45:49;9.70;99.90
18083;DHT22;9168;51.194;6.840;2024-03-29T04:48:17;9.80;99.90
18083;DHT22;9168;51.194;6.840;2024-03-29T04:50:43;9.70;99.90
18083;DHT22;9168;51.194;6.840;2024-03-29T04:53:10;9.60;99.90
18083;DHT22;9168;51.194;6.840;2024-03-29T04:55:37;9.60;99.90
18083;DHT22;9168;51.194;6.840;2024-03-29T04:58:04;9.50;99.90
18083;DHT22;9168;51.194;6.840;2024-03-29T05:00:31;9.50;99.90
18083;DHT22;9168;51.194;6.840;2024-03-29T05:02:58;9.40;99.90
18083;DHT22;9168;51.194;6.840;2024-03-29T05:05:24;9.40;99.90
18083;DHT22;9168;51.194;6.840;2024-03-29T05:07:51;9.40;99.90
18083;DHT22;9168;51.194;6.840;2024-03-29T05:10:18;9.50;99.90
18083;DHT22;9168;51.194;6.840;2024-03-29T05:12:48;9.40;99.90
18083;DHT22;9168;51.194;6.840;2024-03-29T05:15:14;9.40;99.90
18083;DHT22;9168;51.194;6.840;2024-03-29T05:17:41;9.50;99.90
18083;DHT22;9168;51.194;6.840;2024-03-29T05:20:09;9.40;99.90
18083;DHT22;9168;51.194;6.840;2024-03-29T05:22:36;9.40;99.90
18083;DHT22;9168;51.194;6.840;2024-03-29T05:25:02;9.40;99.90
18083;DHT22;9168;51.194;6.840;2024-03-29T05:27:30;9.40;99.90
18083;DHT22;9168;51.194;6.840;2024-03-29T05:29:56;9.50;99.90
18083;DHT22;9168;51.194;6.840;2024-03-29T05:32:24;9.50;99.90
18083;DHT22;9168;51.194;6.840;2024-03-29T05:34:51;9.40;99.90
18083;DHT22;9168;51.194;6.840;2024-03-29T05:37:18;9.30;99.90
18083;DHT22;9168;51.194;6.840;2024-03-29T05:39:44;9.30;99.90
18083;DHT22;9168;51.194;6.840;2024-03-29T05:42:12;9.20;99.90
18083;DHT22;9168;51.194;6.840;2024-03-29T05:44:39;9.20;99.90
18083;DHT22;9168;51.194;6.840;2024-03-29T05:47:06;9.20;99.90
18083;DHT22;9168;51.194;6.840;2024-03-29T05:49:32;9.20;99.90
18083;DHT22;9168;51.194;6.840;2024-03-29T05:51:59;9.20;99.90
18083;DHT22;9168;51.194;6.840;2024-03-29T05:54:26;9.20;99.90
18083;DHT22;9168;51.194;6.840;2024-03-29T05:56:52;9.20;99.90
18083;DHT22;9168;51.194;6.840;2024-03-29T05:59:20;9.20;99.90
18083;DHT22;9168;51.194;6.840;2024-03-29T06:01:46;9.20;99.90
18083;DHT22;9168;51.194;6.840;2024-03-29T06:04:13;9.10;99.90
18083;DHT22;9168;51.194;6.840;2024-03-29T06:06:41;9.20;99.90
18083;DHT22;9168;51.194;6.840;2024-03-29T06:09:08;9.10;99.90
18083;DHT22;9168;51.194;6.840;2024-03-29T06:11:35;9.10;99.90
18083;DHT22;9168;51.194;6.840;2024-03-29T06:14:02;9.10;99.90
18083;DHT22;9168;51.194;6.840;2024-03-29T06:16:46;9.10;99.90
18083;DHT22;9168;51.194;6.840;2024-03-29T06:19:30;9.10;99.90
18083;DHT22;9168;51.194;6.840;2024-03-29T06:21:57;9.10;99.90
18083;DHT22;9168;51.194;6.840;2024-03-29T06:24:23;9.00;99.90
18083;DHT22;9168;51.194;6.840;2024-03-29T06:26:50;9.00;99.90
18083;DHT22;9168;51.194;6.840;2024-03-29T06:29:18;9.10;99.90
18083;DHT22;9168;51.194;6.840;2024-03-29T06:31:45;9.00;99.90
18083;DHT22;9168;51.194;6.840;2024-03-29T06:34:11;9.00;99.90
18083;DHT22;9168;51.194;6.840;2024-03-29T06:36:38;9.00;99.90
18083;DHT22;9168;51.194;6.840;2024-03-29T06:39:05;9.00;99.90
18083;DHT22;9168;51.194;6.840;2024-03-29T06:41:31;9.00;99.90
18083;DHT22;9168;51.194;6.840;2024-03-29T06:43:58;9.10;99.90
18083;DHT22;9168;51.194;6.840;2024-03-29T06:46:25;9.00;99.90
18083;DHT22;9168;51.194;6.840;2024-03-29T06:48:51;9.00;99.90
18083;DHT22;9168;51.194;6.840;2024-03-29T06:51:18;9.00;99.90
18083;DHT22;9168;51.194;6.840;2024-03-29T06:53:45;9.10;99.90
18083;DHT22;9168;51.194;6.840;2024-03-29T06:56:11;9.10;99.90
18083;DHT22;9168;51.194;6.840;2024-03-29T06:58:40;9.20;99.90
18083;DHT22;9168;51.194;6.840;2024-03-29T07:01:07;9.20;99.90
18083;DHT22;9168;51.194;6.840;2024-03-29T07:03:34;9.20;99.90
18083;DHT22;9168;51.194;6.840;2024-03-29T07:06:00;9.30;99.90
18083;DHT22;9168;51.194;6.840;2024-03-29T07:08:28;9.30;99.90
18083;DHT22;9168;51.194;6.840;2024-03-29T07:11:01;9.30;99.90
18083;DHT22;9168;51.194;6.840;2024-03-29T07:13:29;9.30;99.90
18083;DHT22;9168;51.194;6.840;2024-03-29T07:15:57;9.30;99.90
18083;DHT22;9168;51.194;6.840;2024-03-29T07:18:24;9.40;99.90
18083;DHT22;9168;51.194;6.840;2024-03-29T07:20:51;9.40;99.90
18083;DHT22;9168;51.194;6.840;2024-03-29T07:23:18;9.50;99.90
18083;DHT22;9168;51.194;6.840;2024-03-29T07:25:56;9.50;99.90
18083;DHT22;9168;51.194;6.840;2024-03-29T07:28:24;9.50;99.90
18083;DHT22;9168;51.194;6.840;2024-03-29T07:30:50;9.50;99.90
18083;DHT22;9168;51.194;6.840;2024-03-29T07:33:18;9.60;99.90
18083;DHT22;9168;51.194;6.840;2024-03-29T07:35:47;9.60;99.90
18083;DHT22;9168;51.194;6.840;2024-03-29T07:38:14;9.70;99.90
18083;DHT22;9168;51.194;6.840;2024-03-29T07:40:43;9.70;99.90
18083;DHT22;9168;51.194;6.840;2024-03-29T07:43:09;9.80;99.90
18083;DHT22;9168;51.194;6.840;2024-03-29T07:45:39;9.70;99.90
18083;DHT22;9168;51.194;6.840;2024-03-29T07:48:09;9.80;99.90
18083;DHT22;9168;51.194;6.840;2024-03-29T07:50:36;9.80;99.90
18083;DHT22;9168;51.194;6.840;2024-03-29T07:53:02;9.90;99.90
18083;DHT22;9168;51.194;6.840;2024-03-29T07:55:29;9.90;99.90
18083;DHT22;9168;51.194;6.840;2024-03-29T07:57:56;10.00;99.90
18083;DHT22;9168;51.194;6.840;2024-03-29T08:00:25;10.00;99.90
18083;DHT22;9168;51.194;6.840;2024-03-29T08:02:52;10.10;99.90
18083;DHT22;9168;51.194;6.840;2024-03-29T08:05:20;10.10;99.90
18083;DHT22;9168;51.194;6.840;2024-03-29T08:07:47;10.20;99.90
18083;DHT22;9168;51.194;6.840;2024-03-29T08:10:14;10.20;99.90
18083;DHT22;9168;51.194;6.840;2024-03-29T08:12:41;10.20;99.90
18083;DHT22;9168;51.194;6.840;2024-03-29T08:15:07;10.20;99.90
18083;DHT22;9168;51.194;6.840;2024-03-29T08:17:35;10.30;99.90
18083;DHT22;9168;51.194;6.840;2024-03-29T08:20:03;10.30;99.90
18083;DHT22;9168;51.194;6.840;2024-03-29T08:22:31;10.40;99.90
18083;DHT22;9168;51.194;6.840;2024-03-29T08:25:01;10.50;99.90
18083;DHT22;9168;51.194;6.840;2024-03-29T08:27:29;10.50;99.90
18083;DHT22;9168;51.194;6.840;2024-03-29T08:29:56;10.50;99.90
18083;DHT22;9168;51.194;6.840;2024-03-29T08:32:25;10.60;99.90
18083;DHT22;9168;51.194;6.840;2024-03-29T08:34:52;10.60;99.90
18083;DHT22;9168;51.194;6.840;2024-03-29T08:37:19;10.60;99.90
18083;DHT22;9168;51.194;6.840;2024-03-29T08:39:46;10.70;99.90
18083;DHT22;9168;51.194;6.840;2024-03-29T08:42:13;10.80;99.90
18083;DHT22;9168;51.194;6.840;2024-03-29T08:44:42;10.80;99.90
18083;DHT22;9168;51.194;6.840;2024-03-29T08:47:08;10.80;99.90
18083;DHT22;9168;51.194;6.840;2024-03-29T08:49:36;10.80;99.90
18083;DHT22;9168;51.194;6.840;2024-03-29T08:52:03;10.80;99.90
18083;DHT22;9168;51.194;6.840;2024-03-29T08:54:31;10.80;99.90
18083;DHT22;9168;51.194;6.840;2024-03-29T08:56:57;10.90;99.90
18083;DHT22;9168;51.194;6.840;2024-03-29T08:59:27;10.90;99.90
18083;DHT22;9168;51.194;6.840;2024-03-29T09:01:53;10.80;99.90
18083;DHT22;9168;51.194;6.840;2024-03-29T09:04:20;10.90;99.90
18083;DHT22;9168;51.194;6.840;2024-03-29T09:06:47;10.90;99.90
18083;DHT22;9168;51.194;6.840;2024-03-29T09:09:14;11.00;99.90
18083;DHT22;9168;51.194;6.840;2024-03-29T09:11:40;11.00;99.90
18083;DHT22;9168;51.194;6.840;2024-03-29T09:14:07;11.10;99.90
18083;DHT22;9168;51.194;6.840;2024-03-29T09:16:35;11.20;99.90
18083;DHT22;9168;51.194;6.840;2024-03-29T09:19:02;11.30;99.90
18083;DHT22;9168;51.194;6.840;2024-03-29T09:21:30;11.30;99.90
18083;DHT22;9168;51.194;6.840;2024-03-29T09:23:56;11.40;99.90
18083;DHT22;9168;51.194;6.840;2024-03-29T09:26:23;11.60;99.90
18083;DHT22;9168;51.194;6.840;2024-03-29T09:28:50;11.70;99.90
18083;DHT22;9168;51.194;6.840;2024-03-29T09:31:16;11.80;99.90
18083;DHT22;9168;51.194;6.840;2024-03-29T09:33:43;12.00;99.90
18083;DHT22;9168;51.194;6.840;2024-03-29T09:36:12;12.10;99.90
18083;DHT22;9168;51.194;6.840;2024-03-29T09:38:39;12.10;99.90
18083;DHT22;9168;51.194;6.840;2024-03-29T09:41:16;12.20;99.90
18083;DHT22;9168;51.194;6.840;2024-03-29T09:43:45;12.20;99.90
18083;DHT22;9168;51.194;6.840;2024-03-29T09:46:13;12.30;99.90
18083;DHT22;9168;51.194;6.840;2024-03-29T09:48:44;12.20;99.90
18083;DHT22;9168;51.194;6.840;2024-03-29T09:51:13;12.20;99.90
18083;DHT22;9168;51.194;6.840;2024-03-29T09:53:42;12.20;99.90
18083;DHT22;9168;51.194;6.840;2024-03-29T09:56:09;12.20;99.90
18083;DHT22;9168;51.194;6.840;2024-03-29T09:58:37;12.20;99.90
18083;DHT22;9168;51.194;6.840;2024-03-29T10:01:05;12.20;99.90
18083;DHT22;9168;51.194;6.840;2024-03-29T10:03:39;12.20;99.90
18083;DHT22;9168;51.194;6.840;2024-03-29T10:06:06;12.30;99.90
18083;DHT22;9168;51.194;6.840;2024-03-29T10:08:35;12.30;99.90
18083;DHT22;9168;51.194;6.840;2024-03-29T10:11:01;12.40;99.90
18083;DHT22;9168;51.194;6.840;2024-03-29T10:13:28;12.50;99.90
18083;DHT22;9168;51.194;6.840;2024-03-29T10:15:56;12.50;99.90
18083;DHT22;9168;51.194;6.840;2024-03-29T10:21:04;12.60;99.90
18083;DHT22;9168;51.194;6.840;2024-03-29T10:23:32;12.70;99.90
18083;DHT22;9168;51.194;6.840;2024-03-29T10:26:01;12.80;99.90
18083;DHT22;9168;51.194;6.840;2024-03-29T10:28:31;12.80;99.90
18083;DHT22;9168;51.194;6.840;2024-03-29T10:30:59;12.90;99.90
18083;DHT22;9168;51.194;6.840;2024-03-29T10:33:32;12.90;99.90
18083;DHT22;9168;51.194;6.840;2024-03-29T10:36:00;12.90;99.90
18083;DHT22;9168;51.194;6.840;2024-03-29T10:38:29;12.90;99.90
18083;DHT22;9168;51.194;6.840;2024-03-29T10:40:56;13.00;99.90
18083;DHT22;9168;51.194;6.840;2024-03-29T10:43:24;13.00;99.90
18083;DHT22;9168;51.194;6.840;2024-03-29T10:45:51;13.10;99.90
18083;DHT22;9168;51.194;6.840;2024-03-29T10:48:21;13.20;99.90
18083;DHT22;9168;51.194;6.840;2024-03-29T10:50:56;13.30;99.90
18083;DHT22;9168;51.194;6.840;2024-03-29T10:53:25;13.30;99.90
18083;DHT22;9168;51.194;6.840;2024-03-29T10:55:54;13.50;99.90
18083;DHT22;9168;51.194;6.840;2024-03-29T10:58:25;13.60;99.90
18083;DHT22;9168;51.194;6.840;2024-03-29T11:00:57;13.70;99.90
18083;DHT22;9168;51.194;6.840;2024-03-29T11:03:44;13.80;99.90
18083;DHT22;9168;51.194;6.840;2024-03-29T11:06:13;13.90;99.90
18083;DHT22;9168;51.194;6.840;2024-03-29T11:08:43;13.90;99.90
18083;DHT22;9168;51.194;6.840;2024-03-29T11:11:13;13.90;99.90
18083;DHT22;9168;51.194;6.840;2024-03-29T11:16:14;13.90;99.90
18083;DHT22;9168;51.194;6.840;2024-03-29T11:18:43;14.00;99.90
18083;DHT22;9168;51.194;6.840;2024-03-29T11:21:13;14.20;99.90
18083;DHT22;9168;51.194;6.840;2024-03-29T11:23:48;14.30;99.90
18083;DHT22;9168;51.194;6.840;2024-03-29T11:26:16;14.30;99.90
18083;DHT22;9168;51.194;6.840;2024-03-29T11:28:49;14.30;99.90
18083;DHT22;9168;51.194;6.840;2024-03-29T11:31:16;14.30;99.90
18083;DHT22;9168;51.194;6.840;2024-03-29T11:36:19;14.40;99.90
18083;DHT22;9168;51.194;6.840;2024-03-29T11:38:48;14.50;99.90
18083;DHT22;9168;51.194;6.840;2024-03-29T11:41:22;14.60;99.90
18083;DHT22;9168;51.194;6.840;2024-03-29T11:43:50;14.70;99.90
18083;DHT22;9168;51.194;6.840;2024-03-29T11:46:18;14.70;99.90
18083;DHT22;9168;51.194;6.840;2024-03-29T11:48:45;14.70;99.90
18083;DHT22;9168;51.194;6.840;2024-03-29T11:51:16;14.80;99.90
18083;DHT22;9168;51.194;6.840;2024-03-29T11:53:44;14.80;99.90
18083;DHT22;9168;51.194;6.840;2024-03-29T11:56:10;14.90;99.90
18083;DHT22;9168;51.194;6.840;2024-03-29T11:58:37;14.90;99.90
18083;DHT22;9168;51.194;6.840;2024-03-29T12:01:04;14.90;99.90
18083;DHT22;9168;51.194;6.840;2024-03-29T12:03:32;14.80;99.90
18083;DHT22;9168;51.194;6.840;2024-03-29T12:06:00;14.80;99.90
18083;DHT22;9168;51.194;6.840;2024-03-29T12:08:32;14.70;99.90
18083;DHT22;9168;51.194;6.840;2024-03-29T12:11:00;14.60;99.90
18083;DHT22;9168;51.194;6.840;2024-03-29T12:13:27;14.50;99.90
18083;DHT22;9168;51.194;6.840;2024-03-29T12:15:54;14.40;99.90
18083;DHT22;9168;51.194;6.840;2024-03-29T12:18:22;14.30;99.90
18083;DHT22;9168;51.194;6.840;2024-03-29T12:20:50;14.20;99.90
18083;DHT22;9168;51.194;6.840;2024-03-29T12:23:19;14.20;99.90
18083;DHT22;9168;51.194;6.840;2024-03-29T12:25:46;14.10;99.90
18083;DHT22;9168;51.194;6.840;2024-03-29T12:28:14;14.10;99.90
18083;DHT22;9168;51.194;6.840;2024-03-29T12:30:45;14.00;99.90
18083;DHT22;9168;51.194;6.840;2024-03-29T12:33:14;14.00;99.90
18083;DHT22;9168;51.194;6.840;2024-03-29T12:35:42;14.00;99.90
18083;DHT22;9168;51.194;6.840;2024-03-29T12:38:12;14.00;99.90
18083;DHT22;9168;51.194;6.840;2024-03-29T12:40:41;14.00;99.90
18083;DHT22;9168;51.194;6.840;2024-03-29T12:43:10;14.00;99.90
18083;DHT22;9168;51.194;6.840;2024-03-29T12:45:39;14.00;99.90
18083;DHT22;9168;51.194;6.840;2024-03-29T12:48:10;14.00;99.90
18083;DHT22;9168;51.194;6.840;2024-03-29T12:50:40;13.90;99.90
18083;DHT22;9168;51.194;6.840;2024-03-29T12:53:09;13.90;99.90
18083;DHT22;9168;51.194;6.840;2024-03-29T12:55:37;13.90;99.90
18083;DHT22;9168;51.194;6.840;2024-03-29T12:58:05;13.90;99.90
18083;DHT22;9168;51.194;6.840;2024-03-29T13:00:38;14.00;99.90
18083;DHT22;9168;51.194;6.840;2024-03-29T13:03:05;14.00;99.90
18083;DHT22;9168;51.194;6.840;2024-03-29T13:05:32;14.10;99.90
18083;DHT22;9168;51.194;6.840;2024-03-29T13:08:12;14.20;99.90
18083;DHT22;9168;51.194;6.840;2024-03-29T13:10:41;14.30;99.90
18083;DHT22;9168;51.194;6.840;2024-03-29T13:13:08;14.40;99.90
18083;DHT22;9168;51.194;6.840;2024-03-29T13:15:37;14.40;99.90
18083;DHT22;9168;51.194;6.840;2024-03-29T13:18:05;14.40;99.90
18083;DHT22;9168;51.194;6.840;2024-03-29T13:20:35;14.40;99.90
18083;DHT22;9168;51.194;6.840;2024-03-29T13:23:06;14.40;99.90
18083;DHT22;9168;51.194;6.840;2024-03-29T13:25:33;14.40;99.90
18083;DHT22;9168;51.194;6.840;2024-03-29T13:27:59;14.60;99.90
18083;DHT22;9168;51.194;6.840;2024-03-29T13:30:26;14.90;99.90
18083;DHT22;9168;51.194;6.840;2024-03-29T13:32:55;15.20;99.90
18083;DHT22;9168;51.194;6.840;2024-03-29T13:35:22;15.90;99.90
18083;DHT22;9168;51.194;6.840;2024-03-29T13:37:50;16.70;99.90
18083;DHT22;9168;51.194;6.840;2024-03-29T13:40:20;17.70;99.90
18083;DHT22;9168;51.194;6.840;2024-03-29T13:42:47;18.20;99.90
18083;DHT22;9168;51.194;6.840;2024-03-29T13:45:15;18.20;99.90
18083;DHT22;9168;51.194;6.840;2024-03-29T13:47:43;17.80;99.90
18083;DHT22;9168;51.194;6.840;2024-03-29T13:50:11;17.50;99.90
18083;DHT22;9168;51.194;6.840;2024-03-29T13:52:42;17.10;99.90
18083;DHT22;9168;51.194;6.840;2024-03-29T13:55:09;16.70;99.90
18083;DHT22;9168;51.194;6.840;2024-03-29T13:57:36;16.70;99.90
18083;DHT22;9168;51.194;6.840;2024-03-29T14:00:04;17.00;99.90
18083;DHT22;9168;51.194;6.840;2024-03-29T14:02:32;17.50;99.90
18083;DHT22;9168;51.194;6.840;2024-03-29T14:04:59;17.90;99.90
18083;DHT22;9168;51.194;6.840;2024-03-29T14:07:26;18.40;99.90
18083;DHT22;9168;51.194;6.840;2024-03-29T14:09:53;18.40;99.90
18083;DHT22;9168;51.194;6.840;2024-03-29T14:12:20;18.40;99.90
18083;DHT22;9168;51.194;6.840;2024-03-29T14:14:50;18.30;99.90
18083;DHT22;9168;51.194;6.840;2024-03-29T14:17:18;18.10;99.90
18083;DHT22;9168;51.194;6.840;2024-03-29T14:19:47;18.00;99.90
18083;DHT22;9168;51.194;6.840;2024-03-29T14:22:14;18.00;99.90
18083;DHT22;9168;51.194;6.840;2024-03-29T14:24:41;18.00;99.90
18083;DHT22;9168;51.194;6.840;2024-03-29T14:27:08;18.00;99.90
18083;DHT22;9168;51.194;6.840;2024-03-29T14:29:35;17.90;99.90
18083;DHT22;9168;51.194;6.840;2024-03-29T14:32:02;17.60;99.90
18083;DHT22;9168;51.194;6.840;2024-03-29T14:34:29;17.50;99.90
18083;DHT22;9168;51.194;6.840;2024-03-29T14:36:58;17.20;99.90
18083;DHT22;9168;51.194;6.840;2024-03-29T14:39:25;17.10;99.90
18083;DHT22;9168;51.194;6.840;2024-03-29T14:41:53;17.20;99.90
18083;DHT22;9168;51.194;6.840;2024-03-29T14:44:21;17.20;99.90
18083;DHT22;9168;51.194;6.840;2024-03-29T14:46:48;17.20;99.90
18083;DHT22;9168;51.194;6.840;2024-03-29T14:49:14;17.00;99.90
18083;DHT22;9168;51.194;6.840;2024-03-29T14:51:43;17.00;99.90
18083;DHT22;9168;51.194;6.840;2024-03-29T14:54:09;16.80;99.90
18083;DHT22;9168;51.194;6.840;2024-03-29T14:56:36;16.70;99.90
18083;DHT22;9168;51.194;6.840;2024-03-29T14:59:04;16.50;99.90
18083;DHT22;9168;51.194;6.840;2024-03-29T15:01:32;16.40;99.90
18083;DHT22;9168;51.194;6.840;2024-03-29T15:03:59;16.10;99.90
18083;DHT22;9168;51.194;6.840;2024-03-29T15:06:26;16.00;99.90
18083;DHT22;9168;51.194;6.840;2024-03-29T15:08:53;15.90;99.90
18083;DHT22;9168;51.194;6.840;2024-03-29T15:11:23;15.80;99.90
18083;DHT22;9168;51.194;6.840;2024-03-29T15:13:49;15.70;99.90
18083;DHT22;9168;51.194;6.840;2024-03-29T15:16:17;15.60;99.90
18083;DHT22;9168;51.194;6.840;2024-03-29T15:18:44;15.60;99.90
18083;DHT22;9168;51.194;6.840;2024-03-29T15:21:11;15.50;99.90
18083;DHT22;9168;51.194;6.840;2024-03-29T15:23:38;15.30;99.90
18083;DHT22;9168;51.194;6.840;2024-03-29T15:26:04;15.30;99.90
18083;DHT22;9168;51.194;6.840;2024-03-29T15:28:31;15.30;99.90
18083;DHT22;9168;51.194;6.840;2024-03-29T15:31:17;15.20;99.90
18083;DHT22;9168;51.194;6.840;2024-03-29T15:33:48;15.20;99.90
18083;DHT22;9168;51.194;6.840;2024-03-29T15:36:15;15.20;99.90
18083;DHT22;9168;51.194;6.840;2024-03-29T15:38:41;15.20;99.90
18083;DHT22;9168;51.194;6.840;2024-03-29T15:41:08;15.10;99.90
18083;DHT22;9168;51.194;6.840;2024-03-29T15:43:35;15.10;99.90
18083;DHT22;9168;51.194;6.840;2024-03-29T15:46:03;15.00;99.90
18083;DHT22;9168;51.194;6.840;2024-03-29T15:48:29;14.90;99.90
18083;DHT22;9168;51.194;6.840;2024-03-29T15:50:56;14.90;99.90
18083;DHT22;9168;51.194;6.840;2024-03-29T15:53:23;14.80;99.90
18083;DHT22;9168;51.194;6.840;2024-03-29T15:55:50;14.70;99.90
18083;DHT22;9168;51.194;6.840;2024-03-29T15:58:17;14.70;99.90
18083;DHT22;9168;51.194;6.840;2024-03-29T16:00:44;14.70;99.90
18083;DHT22;9168;51.194;6.840;2024-03-29T16:03:14;14.70;99.90
18083;DHT22;9168;51.194;6.840;2024-03-29T16:05:43;14.70;99.90